sensor_id;sensor_type;location;lat;lon;timestamp;P1;durP1;ratioP1;P2;durP2;ratioP2
40623;SDS011;26325;48.594;11.650;2023-12-04T12:27:41;13.23;;;10.90;;
40623;SDS011;26325;48.594;11.650;2023-12-04T12:30:10;13.07;;;10.30;;
40623;SDS011;26325;48.594;11.650;2023-12-04T12:32:37;12.85;;;10.23;;
40623;SDS011;26325;48.594;11.650;2023-12-04T12:35:07;14.45;;;11.50;;
40623;SDS011;26325;48.594;11.650;2023-12-04T12:37:42;13.35;;;10.82;;
40623;SDS011;26325;48.594;11.650;2023-12-04T12:40:09;14.27;;;10.65;;
40623;SDS011;26325;48.594;11.650;2023-12-04T12:42:35;12.80;;;10.57;;
40623;SDS011;26325;48.594;11.650;2023-12-04T12:45:04;11.88;;;10.15;;
40623;SDS011;26325;48.594;11.650;2023-12-04T12:47:30;14.00;;;11.35;;
40623;SDS011;26325;48.594;11.650;2023-12-04T12:50:07;13.57;;;10.93;;
40623;SDS011;26325;48.594;11.650;2023-12-04T12:52:35;12.80;;;10.52;;
40623;SDS011;26325;48.594;11.650;2023-12-04T12:55:08;12.18;;;9.55;;
40623;SDS011;26325;48.594;11.650;2023-12-04T12:57:36;11.73;;;9.10;;
40623;SDS011;26325;48.594;11.650;2023-12-04T13:00:05;11.55;;;9.82;;
40623;SDS011;26325;48.594;11.650;2023-12-04T13:02:35;13.18;;;10.30;;
40623;SDS011;26325;48.594;11.650;2023-12-04T13:05:01;12.68;;;10.55;;
40623;SDS011;26325;48.594;11.650;2023-12-04T13:07:30;13.20;;;10.50;;
40623;SDS011;26325;48.594;11.650;2023-12-04T13:10:06;13.80;;;10.82;;
40623;SDS011;26325;48.594;11.650;2023-12-04T13:12:32;11.65;;;9.65;;
40623;SDS011;26325;48.594;11.650;2023-12-04T13:15:01;11.65;;;9.75;;
40623;SDS011;26325;48.594;11.650;2023-12-04T13:17:26;12.98;;;10.23;;
40623;SDS011;26325;48.594;11.650;2023-12-04T13:19:57;13.32;;;10.80;;
40623;SDS011;26325;48.594;11.650;2023-12-04T13:22:23;12.70;;;10.50;;
40623;SDS011;26325;48.594;11.650;2023-12-04T13:24:51;12.57;;;10.63;;
40623;SDS011;26325;48.594;11.650;2023-12-04T13:27:21;13.60;;;10.63;;
40623;SDS011;26325;48.594;11.650;2023-12-04T13:29:51;15.75;;;11.77;;
40623;SDS011;26325;48.594;11.650;2023-12-04T13:32:17;12.32;;;10.68;;
40623;SDS011;26325;48.594;11.650;2023-12-04T13:34:50;12.88;;;10.85;;
40623;SDS011;26325;48.594;11.650;2023-12-04T13:37:15;13.32;;;11.07;;
40623;SDS011;26325;48.594;11.650;2023-12-04T13:39:46;14.18;;;11.45;;
40623;SDS011;26325;48.594;11.650;2023-12-04T13:42:16;14.48;;;10.95;;
40623;SDS011;26325;48.594;11.650;2023-12-04T13:45:01;13.40;;;10.82;;
40623;SDS011;26325;48.594;11.650;2023-12-04T13:47:27;13.45;;;10.95;;
40623;SDS011;26325;48.594;11.650;2023-12-04T13:49:58;13.75;;;11.15;;
40623;SDS011;26325;48.594;11.650;2023-12-04T13:52:23;12.13;;;10.27;;
40623;SDS011;26325;48.594;11.650;2023-12-04T13:55:02;12.05;;;10.20;;
40623;SDS011;26325;48.594;11.650;2023-12-04T13:57:39;16.13;;;11.27;;
40623;SDS011;26325;48.594;11.650;2023-12-04T14:00:22;15.02;;;10.88;;
40623;SDS011;26325;48.594;11.650;2023-12-04T14:02:52;13.90;;;10.73;;
40623;SDS011;26325;48.594;11.650;2023-12-04T14:05:33;13.45;;;10.60;;
40623;SDS011;26325;48.594;11.650;2023-12-04T14:08:02;13.20;;;10.77;;
40623;SDS011;26325;48.594;11.650;2023-12-04T14:10:30;13.23;;;10.88;;
40623;SDS011;26325;48.594;11.650;2023-12-04T14:13:02;12.85;;;10.98;;
40623;SDS011;26325;48.594;11.650;2023-12-04T14:15:31;14.20;;;10.88;;
40623;SDS011;26325;48.594;11.650;2023-12-04T14:17:56;13.73;;;10.52;;
40623;SDS011;26325;48.594;11.650;2023-12-04T14:20:25;13.18;;;10.48;;
40623;SDS011;26325;48.594;11.650;2023-12-04T14:22:53;14.35;;;10.70;;
40623;SDS011;26325;48.594;11.650;2023-12-04T14:25:20;11.07;;;9.75;;
40623;SDS011;26325;48.594;11.650;2023-12-04T14:27:45;13.75;;;10.98;;
40623;SDS011;26325;48.594;11.650;2023-12-04T14:30:11;12.52;;;10.32;;
40623;SDS011;26325;48.594;11.650;2023-12-04T14:32:39;14.20;;;10.75;;
40623;SDS011;26325;48.594;11.650;2023-12-04T14:35:06;13.65;;;11.13;;
40623;SDS011;26325;48.594;11.650;2023-12-04T14:37:39;15.15;;;11.88;;
40623;SDS011;26325;48.594;11.650;2023-12-04T14:40:05;14.95;;;11.27;;
40623;SDS011;26325;48.594;11.650;2023-12-04T14:42:32;12.63;;;9.93;;
40623;SDS011;26325;48.594;11.650;2023-12-04T14:44:58;15.05;;;11.73;;
40623;SDS011;26325;48.594;11.650;2023-12-04T14:47:23;14.48;;;11.23;;
40623;SDS011;26325;48.594;11.650;2023-12-04T14:49:50;13.20;;;10.82;;
40623;SDS011;26325;48.594;11.650;2023-12-04T14:52:21;18.98;;;14.57;;
40623;SDS011;26325;48.594;11.650;2023-12-04T14:54:50;17.77;;;12.65;;
40623;SDS011;26325;48.594;11.650;2023-12-04T14:57:33;16.67;;;11.32;;
40623;SDS011;26325;48.594;11.650;2023-12-04T15:00:37;14.68;;;11.07;;
40623;SDS011;26325;48.594;11.650;2023-12-04T15:03:27;13.23;;;10.93;;
40623;SDS011;26325;48.594;11.650;2023-12-04T15:06:17;16.25;;;12.43;;
40623;SDS011;26325;48.594;11.650;2023-12-04T15:08:59;16.27;;;12.38;;
40623;SDS011;26325;48.594;11.650;2023-12-04T15:11:49;19.13;;;14.80;;
40623;SDS011;26325;48.594;11.650;2023-12-04T15:14:35;17.98;;;13.60;;
40623;SDS011;26325;48.594;11.650;2023-12-04T15:17:26;19.48;;;14.02;;
40623;SDS011;26325;48.594;11.650;2023-12-04T15:20:18;19.13;;;13.85;;
40623;SDS011;26325;48.594;11.650;2023-12-04T15:22:54;15.18;;;12.23;;
40623;SDS011;26325;48.594;11.650;2023-12-04T15:25:22;15.70;;;12.48;;
40623;SDS011;26325;48.594;11.650;2023-12-04T15:27:48;13.50;;;11.07;;
40623;SDS011;26325;48.594;11.650;2023-12-04T15:30:16;13.90;;;10.73;;
40623;SDS011;26325;48.594;11.650;2023-12-04T15:32:41;14.82;;;11.90;;
40623;SDS011;26325;48.594;11.650;2023-12-04T15:35:10;16.10;;;12.38;;
40623;SDS011;26325;48.594;11.650;2023-12-04T15:37:37;16.30;;;13.02;;
40623;SDS011;26325;48.594;11.650;2023-12-04T15:40:07;16.13;;;12.50;;
40623;SDS011;26325;48.594;11.650;2023-12-04T15:42:34;13.98;;;11.35;;
40623;SDS011;26325;48.594;11.650;2023-12-04T15:45:00;16.85;;;12.85;;
40623;SDS011;26325;48.594;11.650;2023-12-04T15:47:25;15.85;;;12.45;;
40623;SDS011;26325;48.594;11.650;2023-12-04T15:49:51;15.02;;;12.27;;
40623;SDS011;26325;48.594;11.650;2023-12-04T15:52:16;14.75;;;11.50;;
40623;SDS011;26325;48.594;11.650;2023-12-04T15:58:25;15.07;;;11.35;;
40623;SDS011;26325;48.594;11.650;2023-12-04T16:00:51;14.88;;;11.82;;
40623;SDS011;26325;48.594;11.650;2023-12-04T16:03:17;16.05;;;12.68;;
40623;SDS011;26325;48.594;11.650;2023-12-04T16:09:23;17.08;;;13.43;;
40623;SDS011;26325;48.594;11.650;2023-12-04T16:11:50;15.88;;;12.80;;
40623;SDS011;26325;48.594;11.650;2023-12-04T16:14:18;20.65;;;14.23;;
40623;SDS011;26325;48.594;11.650;2023-12-04T16:16:46;19.50;;;14.23;;
40623;SDS011;26325;48.594;11.650;2023-12-04T16:19:17;17.48;;;14.32;;
40623;SDS011;26325;48.594;11.650;2023-12-04T16:21:43;18.05;;;14.68;;
40623;SDS011;26325;48.594;11.650;2023-12-04T16:24:09;16.45;;;13.27;;
40623;SDS011;26325;48.594;11.650;2023-12-04T16:26:36;19.58;;;13.40;;
40623;SDS011;26325;48.594;11.650;2023-12-04T16:29:10;19.58;;;15.23;;
40623;SDS011;26325;48.594;11.650;2023-12-04T16:31:38;20.15;;;15.68;;
40623;SDS011;26325;48.594;11.650;2023-12-04T16:34:05;19.00;;;15.15;;
40623;SDS011;26325;48.594;11.650;2023-12-04T16:36:30;17.80;;;13.77;;
40623;SDS011;26325;48.594;11.650;2023-12-04T16:38:59;17.80;;;14.23;;
40623;SDS011;26325;48.594;11.650;2023-12-04T16:41:24;16.38;;;13.48;;
40623;SDS011;26325;48.594;11.650;2023-12-04T16:43:52;18.67;;;14.88;;
40623;SDS011;26325;48.594;11.650;2023-12-04T16:46:18;18.73;;;14.48;;
40623;SDS011;26325;48.594;11.650;2023-12-04T16:48:43;17.98;;;14.18;;
40623;SDS011;26325;48.594;11.650;2023-12-04T16:51:09;18.98;;;14.85;;
40623;SDS011;26325;48.594;11.650;2023-12-04T16:53:35;18.13;;;13.52;;
40623;SDS011;26325;48.594;11.650;2023-12-04T16:56:00;16.13;;;13.23;;
40623;SDS011;26325;48.594;11.650;2023-12-04T16:58:26;18.00;;;14.25;;
40623;SDS011;26325;48.594;11.650;2023-12-04T17:00:54;20.02;;;15.90;;
40623;SDS011;26325;48.594;11.650;2023-12-04T17:03:19;17.70;;;14.15;;
40623;SDS011;26325;48.594;11.650;2023-12-04T17:05:50;19.42;;;14.93;;
40623;SDS011;26325;48.594;11.650;2023-12-04T17:08:15;18.83;;;14.30;;
40623;SDS011;26325;48.594;11.650;2023-12-04T17:10:41;16.70;;;13.65;;
40623;SDS011;26325;48.594;11.650;2023-12-04T17:13:06;17.73;;;13.98;;
40623;SDS011;26325;48.594;11.650;2023-12-04T17:15:32;16.77;;;13.38;;
40623;SDS011;26325;48.594;11.650;2023-12-04T17:18:00;17.80;;;13.75;;
40623;SDS011;26325;48.594;11.650;2023-12-04T17:20:25;17.55;;;13.77;;
40623;SDS011;26325;48.594;11.650;2023-12-04T17:22:52;17.15;;;13.73;;
40623;SDS011;26325;48.594;11.650;2023-12-04T17:25:17;18.25;;;14.60;;
40623;SDS011;26325;48.594;11.650;2023-12-04T17:27:45;18.40;;;14.05;;
40623;SDS011;26325;48.594;11.650;2023-12-04T17:30:11;21.08;;;14.55;;
40623;SDS011;26325;48.594;11.650;2023-12-04T17:32:37;20.48;;;15.90;;
40623;SDS011;26325;48.594;11.650;2023-12-04T17:35:05;24.58;;;18.60;;
40623;SDS011;26325;48.594;11.650;2023-12-04T17:37:31;26.55;;;19.25;;
40623;SDS011;26325;48.594;11.650;2023-12-04T17:39:57;23.67;;;17.92;;
40623;SDS011;26325;48.594;11.650;2023-12-04T17:42:25;23.50;;;17.38;;
40623;SDS011;26325;48.594;11.650;2023-12-04T17:44:53;22.95;;;17.45;;
40623;SDS011;26325;48.594;11.650;2023-12-04T17:47:18;22.50;;;17.95;;
40623;SDS011;26325;48.594;11.650;2023-12-04T17:49:48;24.25;;;16.83;;
40623;SDS011;26325;48.594;11.650;2023-12-04T17:52:14;25.15;;;18.35;;
40623;SDS011;26325;48.594;11.650;2023-12-04T17:54:39;22.65;;;17.50;;
40623;SDS011;26325;48.594;11.650;2023-12-04T17:57:07;20.20;;;15.85;;
40623;SDS011;26325;48.594;11.650;2023-12-04T17:59:33;24.48;;;17.90;;
40623;SDS011;26325;48.594;11.650;2023-12-04T18:01:58;27.67;;;20.13;;
40623;SDS011;26325;48.594;11.650;2023-12-04T18:04:24;26.60;;;19.42;;
40623;SDS011;26325;48.594;11.650;2023-12-04T18:06:51;23.27;;;18.20;;
40623;SDS011;26325;48.594;11.650;2023-12-04T18:09:17;26.08;;;20.13;;
40623;SDS011;26325;48.594;11.650;2023-12-04T18:11:43;24.80;;;19.27;;
40623;SDS011;26325;48.594;11.650;2023-12-04T18:14:11;20.55;;;16.95;;
40623;SDS011;26325;48.594;11.650;2023-12-04T18:16:40;24.42;;;18.02;;
40623;SDS011;26325;48.594;11.650;2023-12-04T18:19:08;23.38;;;17.67;;
40623;SDS011;26325;48.594;11.650;2023-12-04T18:21:36;23.40;;;18.08;;
40623;SDS011;26325;48.594;11.650;2023-12-04T18:24:04;23.48;;;17.77;;
40623;SDS011;26325;48.594;11.650;2023-12-04T18:26:30;26.67;;;19.02;;
40623;SDS011;26325;48.594;11.650;2023-12-04T18:28:58;20.50;;;16.80;;
40623;SDS011;26325;48.594;11.650;2023-12-04T18:31:24;21.67;;;17.45;;
40623;SDS011;26325;48.594;11.650;2023-12-04T18:33:52;23.20;;;18.73;;
40623;SDS011;26325;48.594;11.650;2023-12-04T18:36:18;23.05;;;17.95;;
40623;SDS011;26325;48.594;11.650;2023-12-04T18:38:53;25.00;;;19.30;;
40623;SDS011;26325;48.594;11.650;2023-12-04T18:41:20;22.88;;;18.13;;
40623;SDS011;26325;48.594;11.650;2023-12-04T18:43:49;19.90;;;16.13;;
40623;SDS011;26325;48.594;11.650;2023-12-04T18:46:15;21.77;;;17.17;;
40623;SDS011;26325;48.594;11.650;2023-12-04T18:48:45;24.13;;;17.80;;
40623;SDS011;26325;48.594;11.650;2023-12-04T18:51:12;22.38;;;17.05;;
40623;SDS011;26325;48.594;11.650;2023-12-04T18:53:40;25.30;;;18.27;;
40623;SDS011;26325;48.594;11.650;2023-12-04T18:56:11;20.25;;;16.65;;
40623;SDS011;26325;48.594;11.650;2023-12-04T18:58:36;20.90;;;16.23;;
40623;SDS011;26325;48.594;11.650;2023-12-04T19:01:02;22.05;;;16.67;;
40623;SDS011;26325;48.594;11.650;2023-12-04T19:03:28;20.70;;;16.17;;
40623;SDS011;26325;48.594;11.650;2023-12-04T19:05:56;22.83;;;18.33;;
40623;SDS011;26325;48.594;11.650;2023-12-04T19:08:22;24.20;;;19.05;;
40623;SDS011;26325;48.594;11.650;2023-12-04T19:10:47;24.58;;;18.85;;
40623;SDS011;26325;48.594;11.650;2023-12-04T19:13:15;21.40;;;17.15;;
40623;SDS011;26325;48.594;11.650;2023-12-04T19:15:43;19.08;;;15.80;;
40623;SDS011;26325;48.594;11.650;2023-12-04T19:18:08;21.50;;;16.58;;
40623;SDS011;26325;48.594;11.650;2023-12-04T19:20:34;21.13;;;17.10;;
40623;SDS011;26325;48.594;11.650;2023-12-04T19:23:02;22.02;;;17.33;;
40623;SDS011;26325;48.594;11.650;2023-12-04T19:25:29;24.67;;;18.70;;
40623;SDS011;26325;48.594;11.650;2023-12-04T19:28:01;25.08;;;20.13;;
40623;SDS011;26325;48.594;11.650;2023-12-04T19:30:28;24.10;;;18.60;;
40623;SDS011;26325;48.594;11.650;2023-12-04T19:32:56;22.60;;;17.40;;
40623;SDS011;26325;48.594;11.650;2023-12-04T19:35:22;22.27;;;17.20;;
40623;SDS011;26325;48.594;11.650;2023-12-04T19:37:47;24.45;;;19.23;;
40623;SDS011;26325;48.594;11.650;2023-12-04T19:40:15;24.67;;;19.88;;
40623;SDS011;26325;48.594;11.650;2023-12-04T19:42:41;28.33;;;21.90;;
40623;SDS011;26325;48.594;11.650;2023-12-04T19:45:10;25.27;;;19.58;;
40623;SDS011;26325;48.594;11.650;2023-12-04T19:47:36;23.77;;;19.42;;
40623;SDS011;26325;48.594;11.650;2023-12-04T19:50:07;24.73;;;19.15;;
40623;SDS011;26325;48.594;11.650;2023-12-04T19:52:37;27.08;;;21.35;;
40623;SDS011;26325;48.594;11.650;2023-12-04T19:55:06;31.08;;;22.27;;
40623;SDS011;26325;48.594;11.650;2023-12-04T19:57:34;28.67;;;21.45;;
40623;SDS011;26325;48.594;11.650;2023-12-04T20:00:02;24.60;;;19.40;;
40623;SDS011;26325;48.594;11.650;2023-12-04T20:02:28;25.80;;;19.80;;
40623;SDS011;26325;48.594;11.650;2023-12-04T20:04:54;25.70;;;19.48;;
40623;SDS011;26325;48.594;11.650;2023-12-04T20:07:20;27.48;;;20.58;;
40623;SDS011;26325;48.594;11.650;2023-12-04T20:09:47;24.95;;;19.55;;
40623;SDS011;26325;48.594;11.650;2023-12-04T20:12:12;25.65;;;19.42;;
40623;SDS011;26325;48.594;11.650;2023-12-04T20:14:40;22.83;;;17.83;;
40623;SDS011;26325;48.594;11.650;2023-12-04T20:17:06;22.02;;;17.55;;
40623;SDS011;26325;48.594;11.650;2023-12-04T20:19:33;22.92;;;18.38;;
40623;SDS011;26325;48.594;11.650;2023-12-04T20:22:10;24.48;;;19.08;;
40623;SDS011;26325;48.594;11.650;2023-12-04T20:24:45;23.85;;;19.00;;
40623;SDS011;26325;48.594;11.650;2023-12-04T20:27:12;26.88;;;17.98;;
40623;SDS011;26325;48.594;11.650;2023-12-04T20:29:38;22.67;;;18.67;;
40623;SDS011;26325;48.594;11.650;2023-12-04T20:32:10;25.35;;;19.45;;
40623;SDS011;26325;48.594;11.650;2023-12-04T20:34:43;23.58;;;18.60;;
40623;SDS011;26325;48.594;11.650;2023-12-04T20:37:08;28.55;;;21.95;;
40623;SDS011;26325;48.594;11.650;2023-12-04T20:39:38;37.83;;;24.10;;
40623;SDS011;26325;48.594;11.650;2023-12-04T20:42:07;30.63;;;21.75;;
40623;SDS011;26325;48.594;11.650;2023-12-04T20:44:36;26.50;;;18.98;;
40623;SDS011;26325;48.594;11.650;2023-12-04T20:47:03;26.63;;;19.65;;
40623;SDS011;26325;48.594;11.650;2023-12-04T20:49:31;22.08;;;17.75;;
40623;SDS011;26325;48.594;11.650;2023-12-04T20:51:59;22.38;;;18.23;;
40623;SDS011;26325;48.594;11.650;2023-12-04T20:57:52;20.95;;;16.65;;
40623;SDS011;26325;48.594;11.650;2023-12-04T21:00:18;19.95;;;16.02;;
40623;SDS011;26325;48.594;11.650;2023-12-04T21:02:44;23.27;;;17.85;;
40623;SDS011;26325;48.594;11.650;2023-12-04T21:05:11;24.00;;;18.30;;
40623;SDS011;26325;48.594;11.650;2023-12-04T21:07:39;19.17;;;16.08;;
40623;SDS011;26325;48.594;11.650;2023-12-04T21:10:20;22.92;;;18.15;;
40623;SDS011;26325;48.594;11.650;2023-12-04T21:12:58;22.00;;;16.98;;
40623;SDS011;26325;48.594;11.650;2023-12-04T21:15:45;22.85;;;17.30;;
40623;SDS011;26325;48.594;11.650;2023-12-04T21:18:22;23.23;;;18.33;;
40623;SDS011;26325;48.594;11.650;2023-12-04T21:20:52;20.52;;;16.42;;
40623;SDS011;26325;48.594;11.650;2023-12-04T21:23:17;20.35;;;16.27;;
40623;SDS011;26325;48.594;11.650;2023-12-04T21:29:01;18.58;;;15.43;;
40623;SDS011;26325;48.594;11.650;2023-12-04T21:31:27;22.55;;;17.35;;
40623;SDS011;26325;48.594;11.650;2023-12-04T21:33:59;22.25;;;16.60;;
40623;SDS011;26325;48.594;11.650;2023-12-04T21:36:27;21.05;;;16.88;;
40623;SDS011;26325;48.594;11.650;2023-12-04T21:38:56;21.15;;;16.25;;
40623;SDS011;26325;48.594;11.650;2023-12-04T21:41:27;21.92;;;17.50;;
40623;SDS011;26325;48.594;11.650;2023-12-04T21:44:22;22.27;;;16.98;;
40623;SDS011;26325;48.594;11.650;2023-12-04T21:47:02;24.25;;;17.83;;
40623;SDS011;26325;48.594;11.650;2023-12-04T21:49:28;20.40;;;16.48;;
40623;SDS011;26325;48.594;11.650;2023-12-04T21:51:58;22.17;;;17.05;;
40623;SDS011;26325;48.594;11.650;2023-12-04T21:54:26;20.55;;;16.75;;
40623;SDS011;26325;48.594;11.650;2023-12-04T21:56:51;23.92;;;17.00;;
40623;SDS011;26325;48.594;11.650;2023-12-04T21:59:17;21.52;;;17.23;;
40623;SDS011;26325;48.594;11.650;2023-12-04T22:01:43;23.30;;;17.23;;
40623;SDS011;26325;48.594;11.650;2023-12-04T22:04:12;21.00;;;16.73;;
40623;SDS011;26325;48.594;11.650;2023-12-04T22:06:38;20.42;;;16.90;;
40623;SDS011;26325;48.594;11.650;2023-12-04T22:09:03;21.23;;;16.75;;
40623;SDS011;26325;48.594;11.650;2023-12-04T22:11:36;21.23;;;16.50;;
40623;SDS011;26325;48.594;11.650;2023-12-04T22:14:04;19.95;;;15.68;;
40623;SDS011;26325;48.594;11.650;2023-12-04T22:16:29;17.80;;;15.02;;
40623;SDS011;26325;48.594;11.650;2023-12-04T22:18:57;17.75;;;14.55;;
40623;SDS011;26325;48.594;11.650;2023-12-04T22:21:22;16.23;;;13.93;;
40623;SDS011;26325;48.594;11.650;2023-12-04T22:23:48;21.02;;;16.25;;
40623;SDS011;26325;48.594;11.650;2023-12-04T22:26:17;19.08;;;14.95;;
40623;SDS011;26325;48.594;11.650;2023-12-04T22:28:42;17.90;;;14.93;;
40623;SDS011;26325;48.594;11.650;2023-12-04T22:31:11;19.10;;;15.35;;
40623;SDS011;26325;48.594;11.650;2023-12-04T22:33:39;16.90;;;14.23;;
40623;SDS011;26325;48.594;11.650;2023-12-04T22:36:06;18.17;;;14.73;;
40623;SDS011;26325;48.594;11.650;2023-12-04T22:38:32;18.67;;;14.68;;
40623;SDS011;26325;48.594;11.650;2023-12-04T22:40:59;16.35;;;14.05;;
40623;SDS011;26325;48.594;11.650;2023-12-04T22:43:27;19.02;;;15.35;;
40623;SDS011;26325;48.594;11.650;2023-12-04T22:45:53;18.55;;;14.55;;
40623;SDS011;26325;48.594;11.650;2023-12-04T22:48:19;17.80;;;14.48;;
40623;SDS011;26325;48.594;11.650;2023-12-04T22:50:45;18.40;;;14.38;;
40623;SDS011;26325;48.594;11.650;2023-12-04T22:53:18;18.38;;;15.27;;
40623;SDS011;26325;48.594;11.650;2023-12-04T22:55:49;17.60;;;14.45;;
40623;SDS011;26325;48.594;11.650;2023-12-04T22:58:17;18.63;;;15.02;;
40623;SDS011;26325;48.594;11.650;2023-12-04T23:00:50;17.83;;;14.50;;
40623;SDS011;26325;48.594;11.650;2023-12-04T23:03:16;19.50;;;14.75;;
40623;SDS011;26325;48.594;11.650;2023-12-04T23:05:52;18.80;;;14.55;;
40623;SDS011;26325;48.594;11.650;2023-12-04T23:08:21;19.05;;;16.55;;
40623;SDS011;26325;48.594;11.650;2023-12-04T23:10:52;21.60;;;16.77;;
40623;SDS011;26325;48.594;11.650;2023-12-04T23:13:18;19.55;;;16.15;;
40623;SDS011;26325;48.594;11.650;2023-12-04T23:15:43;19.58;;;16.05;;
40623;SDS011;26325;48.594;11.650;2023-12-04T23:18:11;18.83;;;15.52;;
40623;SDS011;26325;48.594;11.650;2023-12-04T23:20:37;18.38;;;15.18;;
40623;SDS011;26325;48.594;11.650;2023-12-04T23:23:03;18.90;;;15.73;;
40623;SDS011;26325;48.594;11.650;2023-12-04T23:25:44;19.20;;;16.50;;
40623;SDS011;26325;48.594;11.650;2023-12-04T23:28:10;19.85;;;16.45;;
40623;SDS011;26325;48.594;11.650;2023-12-04T23:30:38;18.45;;;15.40;;
40623;SDS011;26325;48.594;11.650;2023-12-04T23:33:10;19.80;;;16.50;;
40623;SDS011;26325;48.594;11.650;2023-12-04T23:35:36;20.42;;;15.88;;
40623;SDS011;26325;48.594;11.650;2023-12-04T23:38:04;19.25;;;15.88;;
40623;SDS011;26325;48.594;11.650;2023-12-04T23:40:30;18.27;;;15.13;;
40623;SDS011;26325;48.594;11.650;2023-12-04T23:42:55;20.75;;;16.48;;
40623;SDS011;26325;48.594;11.650;2023-12-04T23:45:21;18.83;;;15.15;;
40623;SDS011;26325;48.594;11.650;2023-12-04T23:47:49;19.50;;;15.77;;
40623;SDS011;26325;48.594;11.650;2023-12-04T23:50:15;18.92;;;15.70;;
40623;SDS011;26325;48.594;11.650;2023-12-04T23:52:40;19.33;;;16.75;;
40623;SDS011;26325;48.594;11.650;2023-12-04T23:55:06;18.45;;;15.38;;
40623;SDS011;26325;48.594;11.650;2023-12-04T23:57:32;19.83;;;15.75;;
